createdAt,value
2023-04-20T00:00:24.752Z,5.71
2023-04-20T00:01:24.713Z,5.66
2023-04-20T00:02:25.837Z,5.56
2023-04-20T00:03:24.877Z,5.60
2023-04-20T00:04:24.720Z,5.63
2023-04-20T00:05:24.726Z,5.56
2023-04-20T00:06:24.669Z,5.60
2023-04-20T00:07:24.686Z,5.67
2023-04-20T00:08:24.646Z,5.60
2023-04-20T00:09:24.633Z,5.56
2023-04-20T00:10:24.637Z,5.55
2023-04-20T00:11:24.602Z,5.59
2023-04-20T00:12:24.655Z,5.63
2023-04-20T00:13:24.584Z,5.66
2023-04-20T00:14:24.577Z,5.56
2023-04-20T00:15:24.596Z,5.50
2023-04-20T00:16:24.595Z,5.57
2023-04-20T00:17:24.591Z,5.57
2023-04-20T00:18:24.569Z,5.55
2023-04-20T00:19:24.569Z,5.57
2023-04-20T00:20:24.525Z,5.53
2023-04-20T00:21:24.485Z,5.49
2023-04-20T00:22:24.513Z,5.60
2023-04-20T00:23:24.476Z,5.55
2023-04-20T00:24:24.466Z,5.56
2023-04-20T00:25:24.445Z,5.52
2023-04-20T00:26:24.440Z,5.63
2023-04-20T00:27:24.463Z,5.60
2023-04-20T00:28:24.428Z,5.53
2023-04-20T00:29:24.407Z,5.55
2023-04-20T00:30:24.521Z,5.55
2023-04-20T00:31:24.445Z,5.55
2023-04-20T00:32:24.506Z,5.57
2023-04-20T00:33:24.365Z,5.59
2023-04-20T00:34:24.336Z,5.57
2023-04-20T00:35:24.340Z,5.63
2023-04-20T00:36:24.322Z,5.59
2023-04-20T00:37:24.365Z,5.50
2023-04-20T00:38:24.305Z,5.55
2023-04-20T00:39:24.287Z,5.40
2023-04-20T00:40:24.280Z,5.40
2023-04-20T00:41:24.272Z,5.38
2023-04-20T00:42:24.268Z,5.32
2023-04-20T00:43:24.274Z,5.40
2023-04-20T00:44:24.221Z,5.28
2023-04-20T00:45:24.224Z,5.38
2023-04-20T00:46:24.244Z,5.22
2023-04-20T00:47:25.216Z,5.35
2023-04-20T00:48:24.216Z,5.27
2023-04-20T00:49:24.175Z,5.28
2023-04-20T00:50:24.171Z,5.30
2023-04-20T00:51:24.161Z,5.19
2023-04-20T00:52:24.136Z,5.19
2023-04-20T00:53:25.143Z,5.25
2023-04-20T00:54:24.116Z,5.20
2023-04-20T00:55:24.140Z,5.30
2023-04-20T00:56:24.099Z,5.23
2023-04-20T00:57:24.249Z,5.23
2023-04-20T00:58:24.110Z,5.16
2023-04-20T00:59:24.077Z,5.23
2023-04-20T01:00:24.066Z,5.45
2023-04-20T01:01:24.063Z,5.20
2023-04-20T01:02:24.107Z,5.25
2023-04-20T01:03:24.171Z,5.25
2023-04-20T01:04:24.132Z,5.14
2023-04-20T01:05:23.992Z,5.30
2023-04-20T01:06:23.984Z,5.27
2023-04-20T01:07:23.980Z,5.23
2023-04-20T01:08:23.990Z,5.27
2023-04-20T01:09:23.954Z,5.37
2023-04-20T01:10:23.962Z,5.25
2023-04-20T01:11:23.935Z,5.30
2023-04-20T01:12:23.917Z,5.23
2023-04-20T01:13:23.937Z,5.30
2023-04-20T01:14:23.897Z,5.31
2023-04-20T01:15:23.872Z,5.35
2023-04-20T01:16:24.918Z,5.40
2023-04-20T01:17:23.892Z,5.34
2023-04-20T01:18:23.865Z,5.37
2023-04-20T01:19:24.836Z,5.28
2023-04-20T01:20:23.883Z,5.34
2023-04-20T01:21:23.840Z,5.31
2023-04-20T01:22:23.820Z,5.41
2023-04-20T01:23:23.809Z,5.35
2023-04-20T01:24:23.791Z,5.38
2023-04-20T01:25:23.791Z,5.41
2023-04-20T01:26:23.755Z,5.38
2023-04-20T01:27:23.784Z,5.41
2023-04-20T01:28:23.772Z,5.41
2023-04-20T01:29:23.746Z,5.32
2023-04-20T01:30:23.733Z,5.35
2023-04-20T01:31:23.718Z,5.37
2023-04-20T01:32:23.776Z,5.45
2023-04-20T01:33:23.704Z,5.31
2023-04-20T01:34:23.666Z,5.45
2023-04-20T01:35:23.672Z,5.32
2023-04-20T01:36:23.659Z,5.48
2023-04-20T01:37:23.644Z,5.35
2023-04-20T01:38:23.643Z,5.30
2023-04-20T01:39:23.662Z,5.35
2023-04-20T01:40:23.603Z,5.32
2023-04-20T01:41:23.600Z,5.32
2023-04-20T01:42:23.574Z,5.30
2023-04-20T01:43:23.581Z,5.34
2023-04-20T01:44:23.568Z,5.31
2023-04-20T01:45:23.538Z,5.40
2023-04-20T01:46:23.593Z,5.23
2023-04-20T01:47:23.532Z,5.34
2023-04-20T01:48:23.526Z,5.22
2023-04-20T01:49:23.492Z,5.30
2023-04-20T01:50:23.486Z,5.37
2023-04-20T01:51:23.480Z,5.17
2023-04-20T01:52:23.463Z,5.27
2023-04-20T01:53:23.465Z,5.22
2023-04-20T01:54:23.443Z,5.32
2023-04-20T01:55:23.427Z,5.30
2023-04-20T01:56:23.407Z,5.25
2023-04-20T01:57:23.400Z,5.23
2023-04-20T01:58:23.429Z,5.35
2023-04-20T01:59:23.387Z,5.22
2023-04-20T02:00:23.365Z,5.27
2023-04-20T02:01:23.533Z,5.32
2023-04-20T02:02:23.464Z,5.23
2023-04-20T02:03:23.551Z,5.14
2023-04-20T02:04:23.327Z,5.13
2023-04-20T02:05:23.316Z,5.22
2023-04-20T02:06:23.303Z,5.14
2023-04-20T02:07:23.291Z,5.27
2023-04-20T02:08:23.300Z,5.17
2023-04-20T02:09:23.270Z,5.14
2023-04-20T02:10:23.282Z,5.10
2023-04-20T02:11:23.241Z,5.19
2023-04-20T02:12:23.229Z,5.05
2023-04-20T02:13:23.240Z,5.07
2023-04-20T02:14:23.213Z,5.05
2023-04-20T02:15:23.207Z,5.10
2023-04-20T02:16:23.191Z,5.09
2023-04-20T02:17:23.276Z,5.09
2023-04-20T02:18:23.189Z,5.09
2023-04-20T02:19:23.170Z,5.12
2023-04-20T02:20:23.156Z,4.99
2023-04-20T02:21:23.121Z,5.10
2023-04-20T02:22:23.111Z,5.09
2023-04-20T02:23:23.142Z,5.09
2023-04-20T02:24:23.097Z,5.05
2023-04-20T02:25:23.085Z,5.05
2023-04-20T02:26:23.075Z,5.05
2023-04-20T02:27:23.055Z,5.12
2023-04-20T02:28:23.058Z,5.12
2023-04-20T02:29:23.037Z,5.05
2023-04-20T02:30:23.054Z,5.10
2023-04-20T02:31:23.047Z,5.04
2023-04-20T02:32:23.067Z,5.05
2023-04-20T02:33:23.062Z,5.14
2023-04-20T02:34:22.978Z,5.10
2023-04-20T02:35:22.972Z,4.98
2023-04-20T02:36:22.952Z,4.92
2023-04-20T02:37:22.951Z,5.04
2023-04-20T02:38:22.962Z,5.05
2023-04-20T02:39:22.915Z,5.05
2023-04-20T02:40:22.914Z,5.05
2023-04-20T02:41:22.909Z,4.98
2023-04-20T02:42:22.896Z,5.05
2023-04-20T02:43:22.926Z,5.05
2023-04-20T02:44:22.868Z,5.12
2023-04-20T02:45:22.855Z,4.98
2023-04-20T02:46:22.893Z,4.95
2023-04-20T02:47:22.868Z,5.05
2023-04-20T02:48:22.853Z,4.98
2023-04-20T02:49:22.814Z,5.01
2023-04-20T02:50:22.804Z,5.01
2023-04-20T02:51:22.798Z,4.94
2023-04-20T02:52:22.784Z,4.95
2023-04-20T02:53:22.808Z,5.01
2023-04-20T02:54:22.756Z,4.89
2023-04-20T02:55:22.755Z,5.02
2023-04-20T02:56:22.742Z,5.01
2023-04-20T02:57:22.729Z,4.99
2023-04-20T02:58:22.735Z,4.91
2023-04-20T02:59:22.713Z,4.83
2023-04-20T03:00:22.697Z,4.88
2023-04-20T03:01:22.780Z,4.77
2023-04-20T03:02:22.877Z,4.92
2023-04-20T03:03:23.867Z,4.94
2023-04-20T03:04:22.773Z,4.95
2023-04-20T03:05:22.656Z,4.84
2023-04-20T03:06:22.635Z,4.86
2023-04-20T03:07:22.668Z,4.94
2023-04-20T03:08:22.626Z,4.86
2023-04-20T03:09:22.597Z,4.84
2023-04-20T03:10:22.627Z,4.91
2023-04-20T03:11:22.583Z,4.91
2023-04-20T03:12:22.603Z,4.91
2023-04-20T03:13:22.608Z,4.92
2023-04-20T03:14:22.555Z,4.96
2023-04-20T03:15:22.533Z,4.88
2023-04-20T03:16:22.547Z,4.95
2023-04-20T03:17:22.556Z,4.94
2023-04-20T03:18:22.520Z,4.77
2023-04-20T03:19:22.501Z,4.94
2023-04-20T03:20:22.490Z,4.96
2023-04-20T03:21:22.475Z,4.84
2023-04-20T03:22:22.463Z,4.86
2023-04-20T03:23:22.479Z,4.86
2023-04-20T03:24:22.437Z,4.77
2023-04-20T03:25:22.431Z,4.83
2023-04-20T03:26:22.421Z,4.86
2023-04-20T03:27:22.416Z,4.83
2023-04-20T03:28:22.431Z,4.79
2023-04-20T03:29:22.396Z,4.88
2023-04-20T03:30:22.360Z,4.84
2023-04-20T03:31:22.369Z,4.86
2023-04-20T03:32:23.386Z,4.86
2023-04-20T03:33:22.363Z,4.89
2023-04-20T03:34:22.327Z,4.73
2023-04-20T03:35:22.325Z,4.79
2023-04-20T03:36:22.313Z,4.86
2023-04-20T03:37:22.296Z,4.88
2023-04-20T03:38:23.307Z,4.86
2023-04-20T03:39:22.279Z,4.84
2023-04-20T03:40:22.265Z,4.83
2023-04-20T03:41:22.265Z,4.84
2023-04-20T03:42:22.354Z,4.88
2023-04-20T03:43:22.274Z,4.77
2023-04-20T03:44:22.224Z,4.84
2023-04-20T03:45:22.207Z,4.86
2023-04-20T03:46:23.513Z,4.84
2023-04-20T03:47:23.195Z,4.83
2023-04-20T03:48:22.190Z,4.91
2023-04-20T03:49:22.199Z,4.77
2023-04-20T03:50:22.151Z,4.86
2023-04-20T03:51:22.140Z,4.86
2023-04-20T03:52:22.140Z,4.76
2023-04-20T03:53:22.150Z,4.79
2023-04-20T03:54:22.146Z,4.80
2023-04-20T03:55:22.098Z,4.72
2023-04-20T03:56:22.131Z,4.73
2023-04-20T03:57:22.077Z,4.75
2023-04-20T03:58:22.098Z,4.70
2023-04-20T03:59:22.076Z,4.73
2023-04-20T04:00:22.050Z,4.77
2023-04-20T04:01:22.047Z,4.76
2023-04-20T04:02:22.079Z,4.70
2023-04-20T04:03:22.149Z,4.77
2023-04-20T04:04:22.580Z,4.77
2023-04-20T04:05:22.178Z,4.65
2023-04-20T04:06:21.995Z,4.67
2023-04-20T04:07:21.973Z,4.67
2023-04-20T04:08:21.968Z,4.64
2023-04-20T04:09:22.000Z,4.59
2023-04-20T04:10:21.960Z,4.57
2023-04-20T04:11:21.936Z,4.55
2023-04-20T04:12:21.931Z,4.59
2023-04-20T04:13:21.919Z,4.58
2023-04-20T04:14:21.936Z,4.61
2023-04-20T04:15:21.894Z,4.58
2023-04-20T04:16:21.930Z,4.54
2023-04-20T04:17:21.924Z,4.61
2023-04-20T04:18:21.851Z,4.65
2023-04-20T04:19:21.881Z,4.54
2023-04-20T04:20:21.846Z,4.73
2023-04-20T04:21:21.839Z,4.64
2023-04-20T04:22:21.822Z,4.62
2023-04-20T04:23:21.815Z,4.64
2023-04-20T04:24:21.861Z,4.64
2023-04-20T04:25:21.784Z,4.64
2023-04-20T04:26:21.777Z,4.69
2023-04-20T04:27:21.761Z,4.72
2023-04-20T04:28:21.757Z,4.65
2023-04-20T04:29:21.861Z,4.70
2023-04-20T04:30:21.746Z,4.79
2023-04-20T04:31:21.865Z,4.69
2023-04-20T04:32:21.737Z,4.79
2023-04-20T04:33:21.719Z,4.76
2023-04-20T04:34:21.712Z,4.75
2023-04-20T04:35:21.781Z,4.86
2023-04-20T04:36:21.718Z,4.77
2023-04-20T04:37:21.677Z,4.70
2023-04-20T04:38:21.655Z,4.76
2023-04-20T04:39:21.686Z,4.75
2023-04-20T04:40:21.629Z,4.70
2023-04-20T04:41:21.618Z,4.80
2023-04-20T04:42:21.611Z,4.88
2023-04-20T04:43:21.593Z,4.75
2023-04-20T04:44:21.616Z,4.84
2023-04-20T04:45:21.604Z,4.88
2023-04-20T04:46:21.711Z,4.83
2023-04-20T04:47:21.557Z,4.75
2023-04-20T04:48:21.547Z,4.86
2023-04-20T04:49:21.603Z,4.80
2023-04-20T04:50:21.525Z,4.98
2023-04-20T04:51:21.519Z,4.84
2023-04-20T04:52:21.561Z,4.91
2023-04-20T04:53:21.489Z,4.77
2023-04-20T04:54:21.516Z,4.99
2023-04-20T04:55:21.482Z,4.89
2023-04-20T04:56:21.457Z,4.84
2023-04-20T04:57:21.466Z,4.99
2023-04-20T04:58:21.449Z,4.96
2023-04-20T04:59:21.457Z,4.86
2023-04-20T05:00:21.417Z,4.80
2023-04-20T05:01:21.426Z,4.92
2023-04-20T05:02:21.507Z,4.89
2023-04-20T05:03:21.519Z,4.94
2023-04-20T05:04:21.617Z,4.88
2023-04-20T05:05:21.380Z,4.92
2023-04-20T05:06:21.361Z,4.91
2023-04-20T05:07:21.350Z,4.91
2023-04-20T05:08:21.325Z,4.95
2023-04-20T05:09:21.339Z,4.95
2023-04-20T05:10:21.325Z,4.96
2023-04-20T05:11:21.300Z,4.99
2023-04-20T05:12:21.282Z,4.96
2023-04-20T05:13:21.279Z,4.92
2023-04-20T05:14:21.312Z,4.99
2023-04-20T05:15:21.266Z,5.02
2023-04-20T05:16:21.342Z,5.07
2023-04-20T05:17:21.255Z,5.07
2023-04-20T05:18:21.220Z,5.07
2023-04-20T05:19:21.261Z,5.05
2023-04-20T05:20:21.198Z,5.05
2023-04-20T05:21:21.185Z,5.07
2023-04-20T05:22:21.183Z,5.09
2023-04-20T05:23:21.181Z,5.07
2023-04-20T05:24:21.210Z,5.01
2023-04-20T05:25:21.137Z,5.09
2023-04-20T05:26:21.135Z,5.01
2023-04-20T05:27:21.114Z,5.07
2023-04-20T05:28:21.113Z,5.10
2023-04-20T05:29:22.122Z,5.14
2023-04-20T05:30:22.097Z,5.16
2023-04-20T05:31:22.119Z,5.13
2023-04-20T05:32:21.146Z,5.14
2023-04-20T05:33:21.047Z,5.23
2023-04-20T05:34:21.164Z,5.19
2023-04-20T05:35:21.021Z,5.19
2023-04-20T05:36:21.030Z,5.19
2023-04-20T05:37:21.019Z,5.22
2023-04-20T05:38:20.992Z,5.10
2023-04-20T05:39:21.092Z,5.20
2023-04-20T05:40:20.970Z,5.07
2023-04-20T05:41:20.964Z,5.04
2023-04-20T05:42:20.953Z,5.07
2023-04-20T05:43:20.940Z,5.16
2023-04-20T05:44:20.956Z,5.13
2023-04-20T05:45:20.918Z,5.13
2023-04-20T05:46:20.970Z,5.12
2023-04-20T05:47:20.913Z,5.14
2023-04-20T05:48:20.877Z,5.20
2023-04-20T05:49:20.882Z,5.07
2023-04-20T05:50:20.860Z,5.14
2023-04-20T05:51:20.855Z,5.16
2023-04-20T05:52:20.839Z,5.22
2023-04-20T05:53:20.879Z,5.02
2023-04-20T05:54:20.869Z,4.99
2023-04-20T05:55:22.429Z,5.07
2023-04-20T05:56:21.804Z,5.16
2023-04-20T05:57:20.792Z,5.12
2023-04-20T05:58:20.765Z,5.12
2023-04-20T05:59:20.780Z,5.09
2023-04-20T06:00:20.834Z,5.14
2023-04-20T06:01:20.742Z,5.12
2023-04-20T06:02:20.794Z,5.14
2023-04-20T06:03:20.829Z,5.10
2023-04-20T06:04:21.189Z,5.07
2023-04-20T06:05:20.748Z,5.05
2023-04-20T06:06:20.696Z,4.96
2023-04-20T06:07:20.688Z,5.05
2023-04-20T06:08:20.665Z,4.96
2023-04-20T06:09:20.678Z,5.04
2023-04-20T06:10:20.642Z,5.05
2023-04-20T06:11:20.665Z,4.95
2023-04-20T06:12:20.621Z,4.98
2023-04-20T06:13:20.622Z,5.04
2023-04-20T06:14:20.636Z,5.02
2023-04-20T06:15:20.588Z,5.14
2023-04-20T06:16:20.665Z,5.16
2023-04-20T06:17:20.570Z,5.13
2023-04-20T06:18:20.560Z,5.20
2023-04-20T06:19:20.559Z,5.27
2023-04-20T06:20:20.529Z,5.22
2023-04-20T06:21:20.535Z,5.20
2023-04-20T06:22:20.587Z,5.27
2023-04-20T06:23:20.494Z,5.30
2023-04-20T06:24:20.520Z,5.31
2023-04-20T06:25:20.481Z,5.19
2023-04-20T06:26:20.463Z,5.20
2023-04-20T06:27:20.515Z,5.19
2023-04-20T06:28:20.436Z,5.30
2023-04-20T06:29:20.462Z,5.20
2023-04-20T06:30:20.425Z,5.28
2023-04-20T06:31:20.480Z,5.27
2023-04-20T06:32:21.432Z,5.17
2023-04-20T06:33:20.404Z,5.20
2023-04-20T06:34:20.389Z,5.20
2023-04-20T06:35:20.356Z,5.22
2023-04-20T06:36:20.362Z,5.30
2023-04-20T06:37:20.339Z,5.32
2023-04-20T06:38:20.324Z,5.30
2023-04-20T06:39:20.462Z,5.38
2023-04-20T06:40:20.302Z,5.31
2023-04-20T06:41:20.298Z,5.35
2023-04-20T06:42:20.285Z,5.41
2023-04-20T06:43:20.269Z,5.32
2023-04-20T06:44:20.315Z,5.46
2023-04-20T06:45:20.242Z,5.40
2023-04-20T06:46:20.279Z,5.48
2023-04-20T06:47:20.255Z,5.40
2023-04-20T06:48:31.586Z,5.46
2023-04-20T06:49:22.232Z,5.55
2023-04-20T06:50:20.179Z,5.57
2023-04-20T06:51:20.174Z,5.56
2023-04-20T06:52:20.153Z,5.63
2023-04-20T06:53:20.156Z,5.68
2023-04-20T06:54:20.318Z,5.57
2023-04-20T06:55:20.120Z,5.53
2023-04-20T06:56:20.259Z,5.57
2023-04-20T06:57:20.104Z,5.49
2023-04-20T06:58:20.090Z,5.49
2023-04-20T06:59:20.332Z,5.57
2023-04-20T07:00:20.075Z,5.56
2023-04-20T07:01:20.101Z,5.55
2023-04-20T07:02:20.227Z,5.59
2023-04-20T07:03:20.237Z,5.59
2023-04-20T07:04:20.139Z,5.53
2023-04-20T07:05:20.045Z,5.63
2023-04-20T07:06:19.999Z,5.53
2023-04-20T07:07:19.998Z,5.68
2023-04-20T07:08:19.984Z,5.60
2023-04-20T07:09:20.137Z,5.67
2023-04-20T07:10:20.045Z,5.68
2023-04-20T07:11:19.960Z,5.56
2023-04-20T07:12:19.946Z,5.60
2023-04-20T07:13:19.926Z,5.59
2023-04-20T07:14:19.965Z,5.55
2023-04-20T07:15:19.911Z,5.56
2023-04-20T07:16:19.910Z,5.50
2023-04-20T07:17:19.899Z,5.48
2023-04-20T07:18:19.854Z,5.41
2023-04-20T07:19:19.977Z,5.46
2023-04-20T07:20:19.853Z,5.45
2023-04-20T07:21:19.830Z,5.45
2023-04-20T07:22:19.817Z,5.55
2023-04-20T07:23:19.808Z,5.59
2023-04-20T07:24:19.814Z,5.66
2023-04-20T07:25:19.783Z,5.66
2023-04-20T07:26:19.774Z,5.64
2023-04-20T07:27:19.758Z,5.68
2023-04-20T07:28:19.754Z,5.64
2023-04-20T07:29:19.961Z,5.68
2023-04-20T07:30:19.724Z,5.64
2023-04-20T07:31:19.765Z,5.78
2023-04-20T07:32:19.775Z,5.66
2023-04-20T07:33:19.698Z,5.74
2023-04-20T07:34:19.893Z,5.82
2023-04-20T07:35:19.673Z,5.78
2023-04-20T07:36:19.658Z,5.64
2023-04-20T07:37:19.658Z,5.70
2023-04-20T07:38:19.635Z,5.68
2023-04-20T07:39:19.812Z,5.78
2023-04-20T07:40:19.628Z,5.71
2023-04-20T07:41:19.600Z,5.73
2023-04-20T07:42:19.784Z,5.70
2023-04-20T07:43:19.586Z,5.75
2023-04-20T07:44:19.589Z,5.70
2023-04-20T07:45:19.566Z,5.83
2023-04-20T07:46:19.651Z,5.81
2023-04-20T07:47:19.541Z,5.85
2023-04-20T07:48:19.532Z,5.82
2023-04-20T07:49:19.723Z,5.89
2023-04-20T07:50:19.541Z,5.98
2023-04-20T07:51:19.491Z,5.88
2023-04-20T07:52:19.500Z,5.91
2023-04-20T07:53:19.470Z,5.92
2023-04-20T07:54:19.609Z,5.92
2023-04-20T07:55:19.448Z,5.91
2023-04-20T07:56:19.446Z,5.92
2023-04-20T07:57:19.431Z,5.96
2023-04-20T07:58:19.454Z,6.03
2023-04-20T07:59:19.550Z,6.07
2023-04-20T08:00:19.402Z,6.04
2023-04-20T08:01:19.391Z,6.25
2023-04-20T08:02:20.577Z,6.25
2023-04-20T08:03:19.518Z,6.33
2023-04-20T08:04:19.645Z,6.30
2023-04-20T08:05:19.497Z,6.36
2023-04-20T08:06:19.346Z,6.29
2023-04-20T08:07:19.329Z,6.22
2023-04-20T08:08:19.312Z,6.38
2023-04-20T08:09:19.446Z,6.38
2023-04-20T08:10:19.319Z,6.41
2023-04-20T08:11:19.279Z,6.48
2023-04-20T08:12:19.294Z,6.36
2023-04-20T08:13:19.253Z,6.48
2023-04-20T08:14:19.702Z,6.51
2023-04-20T08:15:19.262Z,6.58
2023-04-20T08:16:19.242Z,6.56
2023-04-20T08:17:19.271Z,6.53
2023-04-20T08:18:21.175Z,6.61
2023-04-20T08:19:19.236Z,6.59
2023-04-20T08:20:19.222Z,6.62
2023-04-20T08:21:19.180Z,6.54
2023-04-20T08:22:19.169Z,6.58
2023-04-20T08:23:19.182Z,6.58
2023-04-20T08:24:19.255Z,6.72
2023-04-20T08:25:19.153Z,6.83
2023-04-20T08:26:19.228Z,6.94
2023-04-20T08:27:19.129Z,6.91
2023-04-20T08:28:32.499Z,7.13
2023-04-20T08:29:21.098Z,6.89
2023-04-20T08:30:19.108Z,6.99
2023-04-20T08:31:19.088Z,7.01
2023-04-20T08:32:19.075Z,6.99
2023-04-20T08:33:19.046Z,7.01
2023-04-20T08:34:19.057Z,6.95
2023-04-20T08:35:19.041Z,7.09
2023-04-20T08:36:19.021Z,7.07
2023-04-20T08:37:19.011Z,7.13
2023-04-20T08:38:23.721Z,7.13
2023-04-20T08:39:20.009Z,7.17
2023-04-20T08:40:18.999Z,7.17
2023-04-20T08:41:18.974Z,7.19
2023-04-20T08:42:18.963Z,7.02
2023-04-20T08:43:20.203Z,7.08
2023-04-20T08:44:19.003Z,7.19
2023-04-20T08:45:18.944Z,7.09
2023-04-20T08:46:19.197Z,7.23
2023-04-20T08:47:18.912Z,7.04
2023-04-20T08:48:18.916Z,7.12
2023-04-20T08:49:18.899Z,7.08
2023-04-20T08:50:18.910Z,7.17
2023-04-20T08:51:18.866Z,7.08
2023-04-20T08:52:18.873Z,7.19
2023-04-20T08:53:18.864Z,7.13
2023-04-20T08:54:19.015Z,7.22
2023-04-20T08:55:18.854Z,7.24
2023-04-20T08:56:18.815Z,7.23
2023-04-20T08:57:18.810Z,7.32
2023-04-20T08:58:18.802Z,7.23
2023-04-20T08:59:18.788Z,7.26
2023-04-20T09:00:18.790Z,7.42
2023-04-20T09:01:25.507Z,7.59
2023-04-20T09:02:20.903Z,7.50
2023-04-20T09:03:18.859Z,7.45
2023-04-20T09:04:19.371Z,7.62
2023-04-20T09:05:18.797Z,7.58
2023-04-20T09:06:18.746Z,7.47
2023-04-20T09:07:18.707Z,7.40
2023-04-20T09:08:50.583Z,7.38
2023-04-20T09:09:18.676Z,7.40
2023-04-20T09:10:18.710Z,7.38
2023-04-20T09:11:18.661Z,7.40
2023-04-20T09:12:18.666Z,7.45
2023-04-20T09:13:18.642Z,7.69
2023-04-20T09:14:18.920Z,7.67
2023-04-20T09:15:18.629Z,7.67
2023-04-20T09:16:18.644Z,7.47
2023-04-20T09:17:18.607Z,7.56
2023-04-20T09:18:18.660Z,7.58
2023-04-20T09:19:18.597Z,7.49
2023-04-20T09:20:18.610Z,7.59
2023-04-20T09:21:18.572Z,7.55
2023-04-20T09:22:18.577Z,7.50
2023-04-20T09:23:18.552Z,7.47
2023-04-20T09:24:18.714Z,7.53
2023-04-20T09:25:18.538Z,7.62
2023-04-20T09:26:18.572Z,7.67
2023-04-20T09:27:18.516Z,7.75
2023-04-20T09:28:18.523Z,7.52
2023-04-20T09:29:18.483Z,7.59
2023-04-20T09:30:18.504Z,7.72
2023-04-20T09:31:18.543Z,7.78
2023-04-20T09:32:18.573Z,7.67
2023-04-20T09:33:18.466Z,7.62
2023-04-20T09:34:18.783Z,7.74
2023-04-20T09:35:18.505Z,7.72
2023-04-20T09:36:18.442Z,7.71
2023-04-20T09:37:18.405Z,7.75
2023-04-20T09:38:18.407Z,7.85
2023-04-20T09:39:18.381Z,7.89
2023-04-20T09:40:18.389Z,7.81
2023-04-20T09:41:18.369Z,7.84
2023-04-20T09:42:18.389Z,7.97
2023-04-20T09:43:18.357Z,7.93
2023-04-20T09:44:18.621Z,7.93
2023-04-20T09:45:18.366Z,7.96
2023-04-20T09:46:18.363Z,8.00
2023-04-20T09:47:18.329Z,8.11
2023-04-20T09:48:18.293Z,8.03
2023-04-20T09:49:18.284Z,8.02
2023-04-20T09:50:26.637Z,8.03
2023-04-20T09:51:20.271Z,7.97
2023-04-20T09:52:18.272Z,8.00
2023-04-20T09:53:18.257Z,8.14
2023-04-20T09:54:18.450Z,8.12
2023-04-20T09:55:18.269Z,7.94
2023-04-20T09:56:18.244Z,7.99
2023-04-20T09:57:18.216Z,8.03
2023-04-20T09:58:18.210Z,8.10
2023-04-20T09:59:18.185Z,8.17
2023-04-20T10:00:18.211Z,8.35
2023-04-20T10:01:18.191Z,8.39
2023-04-20T10:02:18.269Z,8.72
2023-04-20T10:03:18.370Z,9.05
2023-04-20T10:04:18.599Z,9.23
2023-04-20T10:05:18.381Z,9.16
2023-04-20T10:06:18.349Z,9.10
2023-04-20T10:07:18.108Z,8.97
2023-04-20T10:08:18.132Z,8.83
2023-04-20T10:09:18.090Z,8.87
2023-04-20T10:10:18.112Z,8.73
2023-04-20T10:11:18.067Z,8.72
2023-04-20T10:12:18.052Z,8.78
2023-04-20T10:13:18.052Z,8.81
2023-04-20T10:14:18.205Z,8.99
2023-04-20T10:15:18.086Z,9.06
2023-04-20T10:16:18.061Z,9.18
2023-04-20T10:17:18.185Z,9.27
2023-04-20T10:18:18.177Z,9.38
2023-04-20T10:19:17.987Z,9.39
2023-04-20T10:20:17.998Z,9.49
2023-04-20T10:21:17.966Z,9.71
2023-04-20T10:22:18.163Z,9.66
2023-04-20T10:23:17.953Z,9.81
2023-04-20T10:24:19.704Z,9.91
2023-04-20T10:25:17.962Z,10.00
2023-04-20T10:26:17.919Z,9.99
2023-04-20T10:27:17.953Z,10.00
2023-04-20T10:28:17.913Z,9.93
2023-04-20T10:29:17.904Z,10.07
2023-04-20T10:30:17.905Z,9.94
2023-04-20T10:31:17.913Z,10.00
2023-04-20T10:32:17.865Z,9.85
2023-04-20T10:33:17.881Z,9.73
2023-04-20T10:34:18.101Z,9.61
2023-04-20T10:35:17.839Z,9.31
2023-04-20T10:36:17.814Z,9.10
2023-04-20T10:37:17.809Z,9.15
2023-04-20T10:38:17.873Z,9.21
2023-04-20T10:39:19.606Z,9.27
2023-04-20T10:40:18.905Z,9.16
2023-04-20T10:41:17.771Z,9.20
2023-04-20T10:42:18.361Z,9.21
2023-04-20T10:43:18.763Z,9.32
2023-04-20T10:44:17.937Z,9.21
2023-04-20T10:45:17.817Z,9.04
2023-04-20T10:46:17.770Z,8.94
2023-04-20T10:47:17.714Z,8.97
2023-04-20T10:48:18.318Z,8.93
2023-04-20T10:49:17.839Z,8.96
2023-04-20T10:50:17.766Z,9.06
2023-04-20T10:51:17.678Z,8.91
2023-04-20T10:52:17.670Z,8.86
2023-04-20T10:53:17.649Z,8.75
2023-04-20T10:54:18.419Z,8.83
2023-04-20T10:55:18.648Z,8.88
2023-04-20T10:56:17.633Z,9.06
2023-04-20T10:57:17.609Z,9.18
2023-04-20T10:58:17.604Z,9.21
2023-04-20T10:59:17.989Z,9.28
2023-04-20T11:00:17.638Z,9.46
2023-04-20T11:01:17.621Z,9.57
2023-04-20T11:02:17.725Z,9.58
2023-04-20T11:03:17.648Z,9.68
2023-04-20T11:04:19.027Z,9.73
2023-04-20T11:05:18.634Z,9.83
2023-04-20T11:06:17.520Z,9.96
2023-04-20T11:07:17.515Z,10.03
2023-04-20T11:08:17.503Z,10.21
2023-04-20T11:09:17.666Z,10.58
2023-04-20T11:10:17.514Z,10.51
2023-04-20T11:11:17.468Z,10.37
2023-04-20T11:12:17.465Z,10.15
2023-04-20T11:13:17.452Z,10.03
2023-04-20T11:14:17.436Z,9.82
2023-04-20T11:15:17.449Z,9.91
2023-04-20T11:16:17.464Z,9.93
2023-04-20T11:17:17.486Z,10.03
2023-04-20T11:18:17.463Z,10.03
2023-04-20T11:19:17.667Z,10.15
2023-04-20T11:20:17.448Z,10.51
2023-04-20T11:21:17.433Z,10.73
2023-04-20T11:22:17.362Z,10.88
2023-04-20T11:23:17.390Z,10.91
2023-04-20T11:24:17.327Z,11.02
2023-04-20T11:25:17.341Z,11.16
2023-04-20T11:26:17.313Z,11.35
2023-04-20T11:27:17.333Z,11.46
2023-04-20T11:28:17.287Z,11.32
2023-04-20T11:29:17.577Z,11.10
2023-04-20T11:30:17.318Z,10.98
2023-04-20T11:31:17.335Z,10.74
2023-04-20T11:32:17.363Z,10.78
2023-04-20T11:33:17.323Z,10.94
2023-04-20T11:34:17.226Z,11.02
2023-04-20T11:35:17.252Z,11.09
2023-04-20T11:36:17.217Z,11.20
2023-04-20T11:37:17.201Z,11.44
2023-04-20T11:38:17.197Z,11.46
2023-04-20T11:39:17.280Z,11.64
2023-04-20T11:40:17.260Z,11.49
2023-04-20T11:41:17.183Z,11.52
2023-04-20T11:42:17.233Z,11.57
2023-04-20T11:43:17.144Z,11.78
2023-04-20T11:44:17.163Z,11.82
2023-04-20T11:45:17.140Z,11.83
2023-04-20T11:46:17.254Z,11.72
2023-04-20T11:47:17.115Z,12.02
2023-04-20T11:48:17.095Z,12.06
2023-04-20T11:49:17.282Z,11.99
2023-04-20T11:50:17.096Z,12.05
2023-04-20T11:51:17.064Z,11.89
2023-04-20T11:52:17.053Z,11.75
2023-04-20T11:53:17.051Z,11.47
2023-04-20T11:54:17.035Z,11.38
2023-04-20T11:55:17.046Z,11.27
2023-04-20T11:56:17.027Z,11.20
2023-04-20T11:57:17.000Z,11.20
2023-04-20T11:58:17.067Z,11.19
2023-04-20T11:59:17.327Z,11.36
2023-04-20T12:00:16.989Z,11.38
2023-04-20T12:01:16.989Z,11.43
2023-04-20T12:02:17.040Z,11.20
2023-04-20T12:03:17.105Z,11.01
2023-04-20T12:04:17.348Z,10.89
2023-04-20T12:05:17.101Z,10.73
2023-04-20T12:06:16.906Z,10.80
2023-04-20T12:07:16.927Z,10.88
2023-04-20T12:08:16.903Z,10.81
2023-04-20T12:09:17.061Z,10.74
2023-04-20T12:10:16.889Z,10.76
2023-04-20T12:11:16.872Z,10.78
2023-04-20T12:12:16.853Z,10.65
2023-04-20T12:13:16.837Z,10.71
2023-04-20T12:14:16.902Z,10.60
2023-04-20T12:15:16.832Z,10.46
2023-04-20T12:16:16.835Z,10.43
2023-04-20T12:17:16.787Z,10.32
2023-04-20T12:18:16.788Z,10.40
2023-04-20T12:19:17.312Z,10.42
2023-04-20T12:20:16.786Z,10.32
2023-04-20T12:21:16.758Z,10.24
2023-04-20T12:22:16.753Z,10.33
2023-04-20T12:23:16.748Z,10.43
2023-04-20T12:24:16.758Z,10.51
2023-04-20T12:25:16.734Z,10.65
2023-04-20T12:26:16.724Z,10.80
2023-04-20T12:27:17.700Z,11.17
2023-04-20T12:28:16.697Z,11.31
2023-04-20T12:29:17.057Z,11.44
2023-04-20T12:30:16.661Z,11.41
2023-04-20T12:31:16.689Z,11.44
2023-04-20T12:32:16.652Z,11.29
2023-04-20T12:33:16.635Z,11.10
2023-04-20T12:34:16.864Z,11.02
2023-04-20T12:35:16.628Z,10.99
2023-04-20T12:36:16.638Z,11.01
2023-04-20T12:37:16.610Z,10.88
2023-04-20T12:38:16.613Z,10.99
2023-04-20T12:39:16.594Z,11.24
2023-04-20T12:40:16.571Z,11.16
2023-04-20T12:41:16.569Z,11.21
2023-04-20T12:42:16.561Z,11.11
2023-04-20T12:43:16.549Z,11.13
2023-04-20T12:44:16.615Z,11.10
2023-04-20T12:45:16.533Z,11.01
2023-04-20T12:46:16.554Z,10.95
2023-04-20T12:47:16.518Z,11.01
2023-04-20T12:48:16.532Z,11.19
2023-04-20T12:49:16.723Z,11.27
2023-04-20T12:50:16.481Z,11.27
2023-04-20T12:51:16.476Z,11.19
2023-04-20T12:52:16.465Z,11.17
2023-04-20T12:53:16.465Z,11.27
2023-04-20T12:54:16.624Z,11.07
2023-04-20T12:55:16.421Z,11.09
2023-04-20T12:56:16.427Z,11.06
2023-04-20T12:57:16.412Z,11.13
2023-04-20T12:58:16.382Z,11.17
2023-04-20T12:59:16.401Z,11.21
2023-04-20T13:00:16.484Z,11.32
2023-04-20T13:01:16.392Z,11.38
2023-04-20T13:02:16.475Z,11.59
2023-04-20T13:03:16.589Z,11.53
2023-04-20T13:04:16.578Z,11.54
2023-04-20T13:05:16.360Z,11.28
2023-04-20T13:06:16.310Z,11.02
2023-04-20T13:07:16.296Z,10.91
2023-04-20T13:08:16.331Z,10.77
2023-04-20T13:09:16.284Z,10.74
2023-04-20T13:10:16.326Z,10.73
2023-04-20T13:11:16.271Z,10.71
2023-04-20T13:12:16.247Z,10.51
2023-04-20T13:13:16.232Z,10.26
2023-04-20T13:14:16.557Z,10.21